Time;durP1;ratioP1;P1;durP2;ratioP2;P2;SDS_P1;SDS_P2;PMS_P1;PMS_P2;Temp;Humidity;BMP_temperature;BMP_pressure;BME280_temperature;BME280_humidity;BME280_pressure;Samples;Min_cycle;Max_cycle;Signal;HPM_P1;HPM_P2
2022/08/14 00:02:01;;;;;;;8.60;7.40;;;;;;;20.33;85.70;98530.52;104972;1274;75241;-19
2022/08/14 00:04:34;;;;;;;12.30;8.00;;;;;;;20.37;85.05;98525.95;104728;1274;74224;-19
2022/08/14 00:07:11;;;;;;;10.30;8.30;;;;;;;20.23;85.70;98525.90;104881;1271;61201;-18
2022/08/14 00:09:42;;;;;;;10.10;6.70;;;;;;;20.00;86.70;98525.23;105137;1271;61207;-18
2022/08/14 00:12:33;;;;;;;11.50;7.40;;;;;;;19.98;87.37;98520.38;105078;1271;75738;-19
2022/08/14 00:15:10;;;;;;;9.90;7.30;;;;;;;20.15;85.79;98521.77;105103;1271;75940;-19
2022/08/14 00:17:37;;;;;;;14.00;7.90;;;;;;;20.05;86.73;98519.71;104948;1272;73194;-18
2022/08/14 00:20:25;;;;;;;11.60;7.80;;;;;;;19.93;86.89;98522.55;105118;1271;61156;-19
2022/08/14 00:23:08;;;;;;;11.60;7.20;;;;;;;19.84;87.62;98515.36;105010;1271;61073;-19
2022/08/14 00:25:51;;;;;;;14.00;8.20;;;;;;;20.07;86.15;98519.55;104706;1271;75562;-19
2022/08/14 00:28:33;;;;;;;14.70;8.30;;;;;;;20.20;85.43;98520.08;104659;1271;76333;-18
2022/08/14 00:31:02;;;;;;;12.10;8.30;;;;;;;20.05;85.73;98520.85;104784;1271;74695;-19
2022/08/14 00:33:31;;;;;;;8.80;5.50;;;;;;;20.01;86.08;98528.54;104905;1271;61421;-19
2022/08/14 00:36:18;;;;;;;10.10;6.90;;;;;;;20.59;83.78;98530.56;104873;1271;61045;-19
2022/08/14 00:39:05;;;;;;;9.50;6.80;;;;;;;20.93;81.53;98529.25;104782;1271;75474;-19
2022/08/14 00:41:35;;;;;;;12.10;7.90;;;;;;;20.86;81.35;98530.83;104896;1271;75978;-19
2022/08/14 00:44:05;;;;;;;8.60;7.80;;;;;;;20.57;82.29;98526.91;104753;1271;74352;-19
2022/08/14 00:46:36;;;;;;;9.40;6.90;;;;;;;20.24;83.76;98525.20;104808;1271;62672;-19
2022/08/14 00:49:04;;;;;;;13.50;7.10;;;;;;;20.11;85.12;98529.61;104697;1271;61226;-18
2022/08/14 00:51:32;;;;;;;13.80;8.40;;;;;;;20.27;84.27;98530.09;104749;1270;75566;-18
2022/08/14 00:54:05;;;;;;;13.70;8.30;;;;;;;20.01;85.43;98524.13;104907;1271;76013;-19
2022/08/14 00:56:50;;;;;;;12.20;8.00;;;;;;;19.71;87.07;98525.59;104884;1271;74509;-19
2022/08/14 00:59:26;;;;;;;11.10;6.80;;;;;;;19.48;88.41;98524.60;104757;1271;64043;-18
2022/08/14 01:01:57;;;;;;;9.80;7.70;;;;;;;19.81;86.95;98523.60;104694;1271;61250;-18
2022/08/14 01:04:26;;;;;;;19.40;8.30;;;;;;;20.00;85.72;98531.45;104757;1271;74537;-19
2022/08/14 01:07:19;;;;;;;16.20;8.50;;;;;;;19.78;86.37;98529.65;104695;1271;75907;-19
2022/08/14 01:09:50;;;;;;;12.30;7.30;;;;;;;19.61;87.47;98532.67;104706;1272;74369;-19
2022/08/14 01:12:18;;;;;;;13.60;7.30;;;;;;;19.92;86.15;98531.38;104708;1272;62137;-19
2022/08/14 01:14:56;;;;;;;10.00;8.00;;;;;;;20.14;84.45;98528.96;104679;1274;61348;-19
2022/08/14 01:21:02;;;;;;;11.10;8.10;;;;;;;19.96;85.59;98528.23;104696;1274;75732;-19
2022/08/14 01:23:09;;;;;;;12.40;6.00;;;;;;;19.66;87.25;98526.72;103805;1271;1287213;-19
2022/08/14 01:25:43;;;;;;;11.80;7.60;;;;;;;20.06;85.37;98526.39;104699;1271;61137;-19
2022/08/14 01:28:12;;;;;;;12.00;8.00;;;;;;;20.19;84.33;98528.77;104871;1271;62298;-19
2022/08/14 01:30:59;;;;;;;15.30;8.20;;;;;;;20.13;84.42;98529.13;104819;1271;75614;-19
2022/08/14 01:33:28;;;;;;;12.20;8.50;;;;;;;20.04;84.96;98531.05;104906;1271;74957;-19
2022/08/14 01:35:57;;;;;;;7.00;6.10;;;;;;;19.79;86.43;98527.58;104932;1271;74687;-19
2022/08/14 01:38:34;;;;;;;9.60;6.70;;;;;;;20.39;84.69;98529.98;104727;1271;62714;-19
2022/08/14 01:41:08;;;;;;;13.90;7.40;;;;;;;20.71;82.16;98526.27;104769;1271;61183;-19
2022/08/14 01:43:48;;;;;;;12.30;7.00;;;;;;;20.75;81.41;98528.62;104724;1271;74547;-20
2022/08/14 01:46:23;;;;;;;10.70;7.90;;;;;;;20.53;81.75;98526.46;104931;1274;76158;-19
2022/08/14 01:48:51;;;;;;;9.90;6.30;;;;;;;20.17;83.85;98527.10;104635;1272;74566;-19
2022/08/14 01:51:21;;;;;;;8.60;6.20;;;;;;;20.29;83.81;98528.75;104906;1271;61075;-19
2022/08/14 01:53:52;;;;;;;12.40;6.80;;;;;;;20.76;81.85;98523.66;104735;1272;61152;-19
2022/08/14 01:56:32;;;;;;;10.90;7.50;;;;;;;20.77;80.95;98524.07;105109;1271;75337;-19
2022/08/14 01:59:20;;;;;;;11.90;7.60;;;;;;;20.40;82.48;98527.62;104889;1272;75867;-19
2022/08/14 02:01:50;;;;;;;;;;;;;;;19.95;85.22;98527.77;105165;1274;74655;-19
2022/08/14 02:04:29;;;;;;;11.50;7.80;;;;;;;20.08;84.91;98524.36;105096;1272;62034;-19
2022/08/14 02:07:16;;;;;;;12.40;7.90;;;;;;;20.14;84.55;98525.96;104778;1271;61160;-19
2022/08/14 02:10:01;;;;;;;12.40;8.30;;;;;;;20.02;85.05;98523.77;104819;1271;75270;-19
2022/08/14 02:12:28;;;;;;;13.70;8.50;;;;;;;19.84;86.09;98522.69;104859;1271;74755;-20
2022/08/14 02:14:55;;;;;;;9.60;6.40;;;;;;;19.58;87.58;98522.16;104880;1271;74107;-19
2022/08/14 02:17:28;;;;;;;12.10;7.90;;;;;;;19.83;86.69;98524.59;104930;1271;61233;-19
2022/08/14 02:19:57;;;;;;;14.30;8.70;;;;;;;19.87;86.46;98524.77;104810;1272;61361;-19
2022/08/14 02:22:26;;;;;;;13.10;8.10;;;;;;;19.93;85.65;98522.04;104864;1272;75513;-19
2022/08/14 02:25:00;;;;;;;12.90;7.80;;;;;;;19.70;86.77;98522.06;104823;1271;75750;-19
2022/08/14 02:27:28;;;;;;;9.00;6.90;;;;;;;19.52;88.08;98524.14;105126;1271;74554;-20
2022/08/14 02:30:14;;;;;;;10.20;8.00;;;;;;;19.71;87.18;98520.27;104955;1271;61361;-19
2022/08/14 02:32:44;;;;;;;12.60;8.70;;;;;;;19.61;87.45;98517.03;104733;1274;62091;-19
2022/08/14 02:35:17;;;;;;;15.80;8.80;;;;;;;19.48;88.21;98514.69;104789;1271;74502;-19
2022/08/14 02:37:47;;;;;;;9.50;6.60;;;;;;;19.30;89.39;98513.55;104776;1271;75933;-19
2022/08/14 02:40:17;;;;;;;11.10;7.90;;;;;;;19.65;87.83;98514.06;104996;1271;73675;-19
2022/08/14 02:42:43;;;;;;;10.10;6.80;;;;;;;19.99;85.48;98512.86;105053;1271;61216;-19
2022/08/14 02:45:32;;;;;;;20.20;9.00;;;;;;;19.67;86.77;98511.20;105074;1271;61261;-19
2022/08/14 02:48:12;;;;;;;10.40;7.00;;;;;;;19.32;88.98;98510.63;105137;1271;75660;-19
2022/08/14 02:50:59;;;;;;;8.70;6.70;;;;;;;19.27;89.43;98510.77;105078;1272;76492;-19
2022/08/14 02:53:28;;;;;;;10.80;7.50;;;;;;;19.65;87.67;98506.55;105102;1271;73982;-19
2022/08/14 02:55:58;;;;;;;17.70;8.70;;;;;;;19.53;87.69;98502.98;104642;1271;61157;-19
2022/08/14 02:58:38;;;;;;;13.80;9.20;;;;;;;19.32;89.06;98504.01;104658;1271;61234;-19
2022/08/14 03:01:08;;;;;;;9.30;6.70;;;;;;;19.23;90.09;98505.75;104677;1272;75516;-19
2022/08/14 03:03:36;;;;;;;8.70;7.00;;;;;;;19.40;88.82;98501.91;104901;1271;75948;-19
2022/08/14 03:06:06;;;;;;;12.60;8.70;;;;;;;19.56;87.92;98500.95;104865;1271;74396;-19
2022/08/14 03:08:36;;;;;;;10.90;8.60;;;;;;;19.47;88.00;98498.91;104763;1271;62298;-19
2022/08/14 03:11:08;;;;;;;15.10;7.10;;;;;;;19.29;89.48;98494.54;104709;1271;61051;-19
2022/08/14 03:13:36;;;;;;;14.50;7.50;;;;;;;19.16;90.41;98494.10;104650;1271;75365;-19
2022/08/14 03:16:05;;;;;;;11.90;8.10;;;;;;;19.61;88.25;98491.39;104806;1271;74971;-19
2022/08/14 03:18:47;;;;;;;13.20;8.70;;;;;;;19.60;87.47;98493.30;104832;1271;74520;-19
2022/08/14 03:21:22;;;;;;;9.60;8.20;;;;;;;19.63;87.43;98495.92;104742;1271;61825;-19
2022/08/14 03:23:55;;;;;;;11.00;6.60;;;;;;;19.57;87.61;98491.30;104679;1271;61897;-19
2022/08/14 03:26:24;;;;;;;12.20;8.60;;;;;;;19.68;87.33;98489.23;104790;1271;75583;-19
2022/08/14 03:28:57;;;;;;;13.30;9.00;;;;;;;19.62;87.45;98487.85;104788;1271;74903;-19
2022/08/14 03:31:28;;;;;;;11.80;9.00;;;;;;;19.85;86.03;98489.98;104869;1271;74381;-19
2022/08/14 03:33:56;;;;;;;12.50;8.90;;;;;;;19.70;86.53;98489.60;104813;1274;61048;-19
2022/08/14 03:36:26;;;;;;;10.90;7.30;;;;;;;19.33;88.42;98490.09;104762;1271;62195;-19
2022/08/14 03:39:14;;;;;;;11.70;7.10;;;;;;;19.95;86.11;98492.27;104691;1271;74507;-19
2022/08/14 03:41:54;;;;;;;10.00;8.20;;;;;;;20.26;83.78;98497.71;104956;1271;75899;-19
2022/08/14 03:44:22;;;;;;;16.40;10.00;;;;;;;19.97;84.76;98494.84;104713;1271;74390;-19
2022/08/14 03:47:10;;;;;;;14.00;8.80;;;;;;;19.75;86.24;98493.89;104590;1271;61176;-19
2022/08/14 03:49:39;;;;;;;9.00;7.00;;;;;;;19.82;86.17;98489.67;104750;1271;61040;-18
2022/08/14 03:52:09;;;;;;;15.40;8.90;;;;;;;20.38;83.49;98495.16;104837;1271;75310;-19
2022/08/14 03:54:57;;;;;;;12.40;9.90;;;;;;;20.33;83.33;98491.05;104865;1271;74952;-19
2022/08/14 03:57:24;;;;;;;14.90;9.90;;;;;;;20.09;84.09;98491.30;104628;1274;73291;-19
2022/08/14 03:59:52;;;;;;;13.00;10.10;;;;;;;19.79;85.61;98491.98;104990;1271;61164;-19
2022/08/14 04:02:21;;;;;;;10.00;7.60;;;;;;;19.65;86.80;98486.23;105120;1271;61949;-19
2022/08/14 04:05:05;;;;;;;11.50;8.20;;;;;;;19.70;86.42;98489.19;105061;1271;75415;-19
2022/08/14 04:07:40;;;;;;;11.30;9.10;;;;;;;20.13;84.52;98491.35;104745;1274;75819;-19
2022/08/14 04:10:27;;;;;;;15.60;9.60;;;;;;;19.98;84.64;98489.86;105080;1271;74078;-19
2022/08/14 04:13:04;;;;;;;11.00;7.30;;;;;;;19.66;86.37;98490.80;105103;1271;61013;-18
2022/08/14 04:15:32;;;;;;;16.30;8.40;;;;;;;19.74;86.51;98490.58;104954;1272;61918;-19
2022/08/14 04:18:19;;;;;;;12.50;9.20;;;;;;;19.96;85.27;98485.02;104916;1271;75542;-19
2022/08/14 04:20:46;;;;;;;23.50;10.90;;;;;;;19.99;85.05;98484.13;105259;1271;75680;-19
2022/08/14 04:23:22;;;;;;;13.60;9.90;;;;;;;19.81;85.81;98484.55;105225;1271;74382;-19
2022/08/14 04:25:55;;;;;;;14.50;8.00;;;;;;;19.79;86.16;98483.86;105225;1271;62751;-19
2022/08/14 04:28:23;;;;;;;12.70;9.20;;;;;;;20.21;84.23;98484.36;105140;1271;61137;-19
2022/08/14 04:31:11;;;;;;;13.00;9.20;;;;;;;20.57;82.00;98486.95;104711;1271;75387;-19
2022/08/14 04:33:41;;;;;;;10.40;9.40;;;;;;;20.59;81.94;98485.48;104592;1271;76047;-19
2022/08/14 04:36:08;;;;;;;12.10;9.80;;;;;;;20.19;83.27;98486.97;104853;1271;74373;-19
2022/08/14 04:44:16;;;;;;;13.20;8.40;;;;;;;20.98;80.08;98488.89;104825;1271;76097;-18
2022/08/14 04:50:12;;;;;;;10.50;7.30;;;;;;;20.36;82.43;98488.28;104414;1274;74509;-19
2022/08/14 04:52:40;;;;;;;17.10;8.50;;;;;;;20.47;82.51;98487.52;104929;1270;62679;-19
2022/08/14 04:55:09;;;;;;;19.70;9.10;;;;;;;20.56;81.20;98486.83;104953;1271;61120;-19
2022/08/14 04:57:38;;;;;;;15.00;9.30;;;;;;;21.09;79.90;98486.34;104855;1271;74536;-19
2022/08/14 05:00:06;;;;;;;16.40;9.70;;;;;;;21.11;79.23;98479.98;104734;1271;75949;-18
2022/08/14 05:02:42;;;;;;;13.60;9.00;;;;;;;21.19;78.91;98477.98;104634;1271;74371;-19
2022/08/14 05:05:10;;;;;;;9.90;8.00;;;;;;;21.10;79.12;98482.39;104780;1272;63014;-18
2022/08/14 05:07:38;;;;;;;9.70;7.80;;;;;;;21.84;77.42;98483.20;104886;1270;61114;-18
2022/08/14 05:10:23;;;;;;;11.00;8.20;;;;;;;22.33;74.72;98483.44;104985;1271;75277;-21
2022/08/14 05:12:52;;;;;;;13.50;8.30;;;;;;;22.14;75.08;98486.39;104684;1271;75999;-19
2022/08/14 05:15:40;;;;;;;12.20;8.70;;;;;;;22.16;75.37;98484.13;104869;1271;74350;-18
2022/08/14 05:18:18;;;;;;;7.90;6.70;;;;;;;21.97;75.29;98482.46;104756;1273;62811;-18
2022/08/14 05:21:06;;;;;;;12.20;7.50;;;;;;;22.27;73.87;98483.61;104786;1271;61031;-19
2022/08/14 05:23:53;;;;;;;9.10;7.30;;;;;;;22.36;73.18;98478.80;104691;1271;72882;-18
2022/08/14 05:26:21;;;;;;;11.80;7.80;;;;;;;22.14;73.53;98484.98;104969;1270;74912;-20
2022/08/14 05:28:48;;;;;;;9.70;8.10;;;;;;;21.90;74.93;98482.36;105004;1271;74422;-19
2022/08/14 05:31:17;;;;;;;9.20;7.30;;;;;;;22.07;74.09;98482.08;104855;1271;61156;-19
2022/08/14 05:33:48;;;;;;;9.90;6.90;;;;;;;22.05;74.10;98477.96;104782;1271;61106;-19
2022/08/14 05:36:24;;;;;;;9.70;6.30;;;;;;;22.48;72.62;98473.05;104818;1274;75547;-19
2022/08/14 05:38:53;;;;;;;12.20;8.40;;;;;;;22.71;71.66;98468.09;104679;1272;76017;-19
2022/08/14 05:41:21;;;;;;;13.40;8.50;;;;;;;22.49;71.71;98471.62;104723;1274;74358;-19
2022/08/14 05:43:48;;;;;;;9.80;8.00;;;;;;;22.45;72.87;98467.66;104747;1274;61298;-19
2022/08/14 05:46:21;;;;;;;15.40;7.60;;;;;;;22.53;72.23;98466.12;104807;1274;62265;-19
2022/08/14 05:48:55;;;;;;;10.20;5.90;;;;;;;22.34;72.83;98459.15;104626;1272;75532;-19
2022/08/14 05:51:23;;;;;;;9.20;7.00;;;;;;;22.65;72.51;98461.00;104746;1271;76022;-19
2022/08/14 05:53:50;;;;;;;10.70;7.50;;;;;;;23.13;70.88;98452.35;104986;1271;74300;-19
2022/08/14 05:56:37;;;;;;;9.90;7.30;;;;;;;23.29;70.13;98458.70;104864;1271;61864;-19
2022/08/14 05:59:05;;;;;;;10.60;7.20;;;;;;;23.29;68.95;98459.02;104952;1271;62461;-19
2022/08/14 06:01:33;;;;;;;8.90;7.30;;;;;;;23.08;68.90;98459.02;104793;1271;75579;-19
2022/08/14 06:04:04;;;;;;;11.70;7.60;;;;;;;22.89;69.11;98460.54;104794;1274;75818;-19
2022/08/14 06:06:31;;;;;;;8.10;6.10;;;;;;;22.88;69.32;98466.39;104882;1271;74373;-19
2022/08/14 06:09:07;;;;;;;7.70;6.00;;;;;;;23.17;68.41;98469.10;104730;1271;61217;-19
2022/08/14 06:11:36;;;;;;;10.40;7.10;;;;;;;23.41;67.69;98467.17;104966;1271;61947;-19
2022/08/14 06:14:04;;;;;;;8.40;6.70;;;;;;;23.40;66.96;98472.48;104897;1271;75526;-19
2022/08/14 06:16:38;;;;;;;10.70;6.60;;;;;;;23.35;66.89;98469.13;104806;1271;76085;-19
2022/08/14 06:19:07;;;;;;;13.10;7.10;;;;;;;23.45;66.80;98474.23;104924;1271;73564;-19
2022/08/14 06:21:44;;;;;;;10.10;7.20;;;;;;;22.95;67.91;98476.30;104903;1271;61449;-19
2022/08/14 06:24:12;;;;;;;10.70;7.50;;;;;;;22.86;67.84;98481.19;104905;1271;60995;-19
2022/08/14 06:26:46;;;;;;;9.50;6.70;;;;;;;22.82;68.50;98478.20;104695;1274;75863;-19
2022/08/14 06:29:23;;;;;;;11.90;7.40;;;;;;;22.88;68.78;98475.67;104803;1271;76161;-19
2022/08/14 06:31:51;;;;;;;10.70;6.90;;;;;;;23.35;67.73;98474.73;104835;1274;73320;-19
2022/08/14 06:34:26;;;;;;;12.20;8.00;;;;;;;23.17;66.90;98472.45;104752;1271;61043;-19
2022/08/14 06:37:15;;;;;;;8.20;6.70;;;;;;;23.17;67.34;98473.11;104819;1271;61163;-19
2022/08/14 06:39:43;;;;;;;8.70;6.80;;;;;;;23.27;67.63;98476.95;104925;1271;75610;-19
2022/08/14 06:42:11;;;;;;;13.40;7.60;;;;;;;23.13;68.32;98476.58;104818;1271;76110;-19
2022/08/14 06:45:00;;;;;;;11.00;7.90;;;;;;;23.06;68.11;98477.27;104757;1274;74427;-19
2022/08/14 06:47:29;;;;;;;8.30;6.10;;;;;;;23.01;68.94;98477.44;104717;1271;62867;-19
2022/08/14 06:49:56;;;;;;;7.00;6.30;;;;;;;23.58;68.45;98480.00;104789;1271;61060;-19
2022/08/14 06:52:24;;;;;;;11.60;7.30;;;;;;;24.14;66.35;98479.52;104901;1271;75461;-20
2022/08/14 06:54:51;;;;;;;11.60;7.30;;;;;;;24.32;65.64;98479.31;105019;1271;75936;-19
2022/08/14 06:57:19;;;;;;;12.70;7.30;;;;;;;24.70;65.36;98478.34;104954;1273;74457;-19
2022/08/14 06:59:48;;;;;;;11.00;7.20;;;;;;;24.60;65.42;98481.15;104782;1274;61160;-19
2022/08/14 07:07:57;;;;;;;9.00;6.90;;;;;;;24.75;63.86;98481.20;104951;1271;75980;-18
2022/08/14 07:10:24;;;;;;;12.30;6.90;;;;;;;24.77;63.13;98484.58;104826;1271;74395;-20
2022/08/14 07:12:53;;;;;;;8.50;6.20;;;;;;;24.72;62.84;98483.18;105115;1271;62110;-19
2022/08/14 07:15:31;;;;;;;9.70;7.30;;;;;;;24.53;61.78;98482.86;104823;1271;61049;-18
2022/08/14 07:18:07;;;;;;;11.40;6.40;;;;;;;24.70;63.54;98489.44;104617;1274;75574;-18
2022/08/14 07:20:36;;;;;;;9.70;6.50;;;;;;;25.05;63.60;98487.06;104725;1271;75030;-19
2022/08/14 07:23:05;;;;;;;8.90;6.10;;;;;;;25.42;62.05;98487.57;105054;1271;74466;-19
2022/08/14 07:25:38;;;;;;;10.50;5.90;;;;;;;25.48;60.82;98486.96;104786;1272;61937;-19
2022/08/14 07:28:12;;;;;;;7.70;5.70;;;;;;;25.51;58.85;98489.45;104787;1271;62107;-19
2022/08/14 07:30:49;;;;;;;8.70;6.50;;;;;;;25.30;59.90;98490.83;104687;1274;75508;-19
2022/08/14 07:33:18;;;;;;;9.10;6.80;;;;;;;25.41;58.82;98487.95;104793;1272;74933;-19
2022/08/14 07:35:52;;;;;;;9.40;6.70;;;;;;;25.70;59.40;98490.02;104880;1271;74466;-19
2022/08/14 07:38:29;;;;;;;10.70;6.90;;;;;;;25.95;57.94;98493.05;104803;1271;61011;-20
2022/08/14 07:41:04;;;;;;;9.60;6.70;;;;;;;26.06;57.49;98493.80;104618;1274;61220;-19
2022/08/14 07:43:42;;;;;;;13.80;6.70;;;;;;;26.20;56.55;98494.45;104604;1271;75515;-18
2022/08/14 07:46:11;;;;;;;7.70;6.20;;;;;;;26.30;56.29;98499.31;104577;1274;74979;-19
2022/08/14 07:48:40;;;;;;;9.90;7.50;;;;;;;26.37;56.21;98493.66;104676;1274;73367;-19
2022/08/14 07:51:07;;;;;;;10.20;6.70;;;;;;;26.34;55.17;98491.80;104659;1271;61170;-19
2022/08/14 07:53:39;;;;;;;13.40;7.40;;;;;;;26.12;55.14;98485.98;104680;1271;61669;-19
2022/08/14 07:56:09;;;;;;;12.70;8.40;;;;;;;26.27;55.15;98488.54;104778;1273;74458;-19
2022/08/14 07:58:57;;;;;;;10.20;7.10;;;;;;;26.34;55.21;98488.49;104691;1272;76138;-19
2022/08/14 08:01:25;;;;;;;12.90;7.70;;;;;;;26.46;56.30;98490.11;104713;1271;73367;-19
2022/08/14 08:03:52;;;;;;;8.20;6.80;;;;;;;26.71;55.37;98487.93;104733;1272;61138;-19
2022/08/14 08:06:26;;;;;;;9.40;6.80;;;;;;;26.97;54.75;98491.05;104725;1274;61905;-21
2022/08/14 08:08:54;;;;;;;10.90;7.00;;;;;;;27.10;53.91;98486.61;104802;1271;75554;-19
2022/08/14 08:11:31;;;;;;;13.50;7.40;;;;;;;27.05;54.52;98486.61;104733;1274;76386;-19
2022/08/14 08:14:05;;;;;;;12.00;6.90;;;;;;;27.36;55.16;98483.73;104748;1272;74272;-19
2022/08/14 08:16:37;;;;;;;9.80;6.70;;;;;;;27.64;54.52;98480.17;104903;1271;61317;-19
2022/08/14 08:19:09;;;;;;;7.50;6.70;;;;;;;27.82;53.53;98481.52;105110;1271;61158;-19
2022/08/14 08:21:40;;;;;;;9.00;6.60;;;;;;;28.03;53.18;98470.38;104784;1270;74299;-19
2022/08/14 08:24:10;;;;;;;8.80;6.20;;;;;;;27.96;52.44;98467.65;104855;1271;75885;-19
2022/08/14 08:26:38;;;;;;;13.00;6.40;;;;;;;27.66;52.27;98465.95;104864;1274;73399;-19
2022/08/14 08:29:08;;;;;;;12.60;8.10;;;;;;;27.52;52.68;98463.56;105021;1271;61302;-19
2022/08/14 08:31:49;;;;;;;11.10;6.60;;;;;;;27.58;53.39;98461.33;105116;1274;61681;-19
2022/08/14 08:34:18;;;;;;;8.50;6.70;;;;;;;27.43;52.17;98458.97;105070;1271;75672;-19
2022/08/14 08:36:46;;;;;;;7.10;6.10;;;;;;;27.40;52.67;98456.14;105114;1271;75951;-19
2022/08/14 08:39:13;;;;;;;16.30;7.30;;;;;;;27.28;52.78;98456.05;105115;1271;74404;-19
2022/08/14 08:41:48;;;;;;;6.90;6.10;;;;;;;27.21;53.30;98458.27;105071;1271;61029;-19
2022/08/14 08:44:21;;;;;;;8.80;6.10;;;;;;;26.94;54.36;98463.00;104939;1271;61070;-19
2022/08/14 08:47:04;;;;;;;6.80;6.10;;;;;;;27.06;54.30;98460.77;105033;1274;75566;-19
2022/08/14 08:49:38;;;;;;;9.50;6.20;;;;;;;27.26;53.18;98455.98;104839;1271;75846;-19
2022/08/14 08:52:15;;;;;;;7.30;6.20;;;;;;;27.13;51.57;98458.64;104747;1271;74569;-19
2022/08/14 08:54:55;;;;;;;10.40;6.10;;;;;;;26.97;52.39;98459.09;104765;1271;61272;-19
2022/08/14 08:57:22;;;;;;;8.30;5.40;;;;;;;27.32;52.58;98456.64;104879;1271;61077;-19
2022/08/14 08:59:50;;;;;;;9.00;5.70;;;;;;;27.75;51.48;98454.02;104893;1271;75374;-19
2022/08/14 09:02:25;;;;;;;11.30;5.50;;;;;;;27.99;49.42;98446.38;104931;1271;75717;-19
2022/08/14 09:05:00;;;;;;;8.10;5.80;;;;;;;28.14;48.98;98447.16;104935;1271;74408;-19
2022/08/14 09:07:28;;;;;;;8.10;5.90;;;;;;;28.43;48.71;98447.80;104869;1274;61089;-19
2022/08/14 09:09:57;;;;;;;11.30;5.90;;;;;;;28.70;49.10;98440.31;104902;1271;61019;-18
2022/08/14 09:12:29;;;;;;;15.30;6.20;;;;;;;29.07;48.48;98442.13;104780;1271;75436;-18
2022/08/14 09:15:04;;;;;;;14.40;6.10;;;;;;;28.95;48.02;98439.86;104782;1271;76632;-18
2022/08/14 09:17:40;;;;;;;9.30;6.00;;;;;;;28.95;47.48;98436.45;104861;1271;73454;-18
2022/08/14 09:20:10;;;;;;;8.60;6.10;;;;;;;29.00;46.63;98432.73;104939;1273;61943;-18
2022/08/14 09:22:39;;;;;;;8.00;5.90;;;;;;;29.09;46.37;98428.95;104755;1271;62227;-18
2022/08/14 09:25:15;;;;;;;5.90;5.30;;;;;;;29.37;45.31;98423.64;104593;1274;75713;-18
2022/08/14 09:27:42;;;;;;;7.00;5.60;;;;;;;29.56;44.60;98424.23;104800;1274;74191;-18
2022/08/14 09:30:10;;;;;;;7.00;5.90;;;;;;;29.14;45.57;98423.60;105092;1272;75902;-18
2022/08/14 09:33:07;;;;;;;6.30;5.70;;;;;;;29.51;45.75;98420.45;104964;1274;61146;-18
2022/08/14 09:36:03;;;;;;;11.70;6.50;;;;;;;29.98;44.87;98419.79;104860;1274;61946;-18
2022/08/14 09:38:52;;;;;;;8.30;6.30;;;;;;;29.76;45.50;98416.22;104986;1271;75510;-18
2022/08/14 09:41:51;;;;;;;13.30;5.30;;;;;;;30.09;44.69;98416.19;104854;1271;76093;-18
2022/08/14 09:45:06;;;;;;;9.80;5.80;;;;;;;29.71;44.42;98418.17;104872;1271;74547;-18
2022/08/14 09:47:45;;;;;;;12.00;6.10;;;;;;;29.30;44.49;98409.36;104786;1272;61081;-18
2022/08/14 09:50:16;;;;;;;9.00;5.90;;;;;;;29.51;45.52;98409.80;104660;1271;62242;-18
2022/08/14 09:53:01;;;;;;;7.10;5.80;;;;;;;29.95;42.72;98412.09;104919;1271;75811;-18
2022/08/14 09:55:33;;;;;;;10.80;5.80;;;;;;;29.85;43.01;98414.34;104778;1272;75011;-18
2022/08/14 09:58:10;;;;;;;12.00;5.40;;;;;;;29.63;43.40;98413.88;104724;1271;74506;-18
2022/08/14 10:00:53;;;;;;;9.90;5.30;;;;;;;30.16;42.00;98411.19;104815;1271;61160;-18
2022/08/14 10:03:24;;;;;;;10.80;5.90;;;;;;;30.09;42.03;98407.73;105039;1271;62019;-18
2022/08/14 10:06:12;;;;;;;9.90;5.70;;;;;;;29.28;43.41;98405.81;104678;1271;74570;-18
2022/08/14 10:08:49;;;;;;;9.20;4.90;;;;;;;30.08;42.64;98411.14;104851;1274;74778;-18
2022/08/14 10:11:20;;;;;;;6.90;5.20;;;;;;;30.50;41.46;98415.60;105112;1271;74249;-18
2022/08/14 10:13:54;;;;;;;12.20;6.10;;;;;;;30.19;40.86;98415.31;104703;1271;61225;-18
2022/08/14 10:16:29;;;;;;;5.80;5.00;;;;;;;30.44;41.14;98420.50;104617;1271;61159;-18
2022/08/14 10:19:05;;;;;;;6.90;5.00;;;;;;;30.36;40.11;98418.30;104763;1271;74496;-18
2022/08/14 10:21:34;;;;;;;6.90;4.90;;;;;;;30.56;40.18;98415.65;104610;1274;75085;-18
2022/08/14 10:24:07;;;;;;;11.60;4.80;;;;;;;31.11;39.38;98415.58;104725;1271;74401;-18
2022/08/14 10:26:35;;;;;;;13.50;5.90;;;;;;;31.38;38.92;98412.93;104987;1271;62048;-18
2022/08/14 10:29:08;;;;;;;11.60;5.10;;;;;;;31.71;38.63;98410.14;104693;1271;61972;-18
2022/08/14 10:31:56;;;;;;;6.60;4.80;;;;;;;31.79;37.78;98417.44;104746;1271;75710;-18
2022/08/14 10:34:23;;;;;;;8.60;5.50;;;;;;;31.68;37.98;98413.22;105147;1271;74743;-18
2022/08/14 10:37:07;;;;;;;8.40;6.40;;;;;;;31.84;38.08;98409.09;104887;1271;74428;-18
2022/08/14 10:39:42;;;;;;;8.40;5.10;;;;;;;31.92;38.67;98415.85;104587;1274;62050;-18
2022/08/14 10:42:38;;;;;;;7.80;5.10;;;;;;;31.67;37.40;98409.99;104788;1271;61174;-18
2022/08/14 10:45:19;;;;;;;8.20;4.00;;;;;;;31.72;38.26;98415.95;104749;1271;75426;-18
2022/08/14 10:47:48;;;;;;;9.80;5.00;;;;;;;31.95;36.77;98411.60;104749;1271;75964;-18
2022/08/14 10:50:40;;;;;;;8.30;5.30;;;;;;;32.09;36.15;98409.97;104702;1271;74288;-18
2022/08/14 10:53:07;;;;;;;10.60;4.80;;;;;;;32.14;36.22;98410.14;104635;1271;62086;-18
2022/08/14 10:55:39;;;;;;;5.40;4.20;;;;;;;32.19;37.01;98414.63;104739;1271;61082;-18
2022/08/14 10:58:12;;;;;;;9.90;4.50;;;;;;;31.89;37.56;98414.39;104659;1271;75494;-18
2022/08/14 11:00:54;;;;;;;8.60;4.60;;;;;;;31.56;37.99;98414.22;104894;1271;75896;-19
2022/08/14 11:03:24;;;;;;;5.00;4.40;;;;;;;31.84;38.09;98414.37;104943;1271;73585;-18
2022/08/14 11:06:15;;;;;;;7.40;5.10;;;;;;;31.97;37.67;98415.40;104794;1271;61871;-18
2022/08/14 11:08:41;;;;;;;6.30;4.40;;;;;;;32.07;37.21;98411.38;104763;1271;61060;-18
2022/08/14 11:11:11;;;;;;;6.90;5.30;;;;;;;31.94;36.63;98411.21;104641;1271;75790;-18
2022/08/14 11:13:42;;;;;;;6.90;4.90;;;;;;;31.69;37.36;98415.77;104866;1271;76107;-18
2022/08/14 11:16:11;;;;;;;9.30;4.70;;;;;;;31.29;38.01;98418.77;104612;1271;74200;-18
2022/08/14 11:18:43;;;;;;;10.40;5.00;;;;;;;31.07;39.63;98418.23;104744;1271;61157;-19
2022/08/14 11:21:14;;;;;;;15.40;5.10;;;;;;;30.94;39.51;98412.75;104885;1271;62307;-18
2022/08/14 11:23:41;;;;;;;10.30;4.70;;;;;;;30.94;39.63;98411.46;104657;1271;75583;-18
2022/08/14 11:26:15;;;;;;;9.80;4.80;;;;;;;31.02;40.42;98414.42;104800;1271;74970;-18
2022/08/14 11:28:45;;;;;;;6.30;4.90;;;;;;;31.22;39.80;98417.16;104637;1274;73710;-18
2022/08/14 11:31:19;;;;;;;5.40;4.20;;;;;;;31.43;39.15;98407.04;104772;1271;61055;-18
2022/08/14 11:33:56;;;;;;;7.80;5.20;;;;;;;31.33;38.59;98415.48;104651;1271;61157;-18
2022/08/14 11:36:27;;;;;;;6.30;4.70;;;;;;;31.11;39.70;98414.67;104732;1271;75684;-18
2022/08/14 11:39:18;;;;;;;11.30;5.10;;;;;;;31.29;39.41;98411.01;104677;1271;75874;-18
2022/08/14 11:42:06;;;;;;;6.60;4.50;;;;;;;31.30;39.41;98412.23;104739;1271;74767;-18
2022/08/14 11:44:59;;;;;;;7.90;4.40;;;;;;;31.01;39.77;98409.39;104738;1271;61153;-18
2022/08/14 11:47:27;;;;;;;6.60;4.50;;;;;;;31.04;39.68;98406.69;104667;1271;62188;-18
2022/08/14 11:50:16;;;;;;;8.80;4.40;;;;;;;30.84;40.17;98412.52;105041;1271;75692;-18
2022/08/14 11:53:01;;;;;;;9.00;5.60;;;;;;;30.67;40.78;98418.27;104812;1271;75854;-18
2022/08/14 11:55:35;;;;;;;6.90;5.40;;;;;;;30.70;40.42;98420.67;105007;1271;74613;-18
2022/08/14 11:58:08;;;;;;;6.90;4.80;;;;;;;30.76;41.07;98418.63;104658;1271;61889;-18
2022/08/14 12:00:48;;;;;;;9.30;5.00;;;;;;;30.21;42.81;98421.52;104720;1271;61678;-18
2022/08/14 12:03:15;;;;;;;10.50;4.90;;;;;;;29.98;44.37;98428.73;104821;1271;75579;-18
2022/08/14 12:06:04;;;;;;;10.40;5.00;;;;;;;30.01;44.21;98428.36;104896;1271;76180;-18
2022/08/14 12:08:34;;;;;;;7.10;5.50;;;;;;;29.48;44.83;98430.32;104761;1271;73314;-18
2022/08/14 12:11:06;;;;;;;8.00;5.60;;;;;;;29.04;46.26;98433.27;104543;1271;61076;-18
2022/08/14 12:13:36;;;;;;;6.40;5.70;;;;;;;28.92;46.58;98434.86;104528;1271;61061;-18